Plain View, Virginia
Current Conditions -  °F | °C
As of 11:15 AM on Saturday 25 Oct 2014 (Local Time) from KFYJ Reporting Station
Clear Clear  
Wind Chill: 66°   Ceiling: Unl
Heat Index: 66°   Visibility: 10mi
Dew Point: 44°   Wind: 3mph
Humidity: 44%   Direction: 310°NW
Pressure: 30"   Gusts: NA
Location:  37.5357°N, 76.7136°W
Report Text: KFYJ 251515Z AUTO 31003KT 10SM CLR 19/06 A3000 RMK AO2 T01890064
Loading
Personal Weather Stations






























Interactive Weather Map
Tropical Storm Tracking
New forecast layout! Learn more

10-Day Weather Forecast

Advertisements
Track Severe Weather on mobile